sensor_id;sensor_type;location;lat;lon;timestamp;temperature;humidity
30150;DHT22;16962;48.646;9.026;2022-07-23T00:00:02;21.20;1.00
30150;DHT22;16962;48.646;9.026;2022-07-23T00:02:50;21.20;1.00
30150;DHT22;16962;48.646;9.026;2022-07-23T00:05:37;21.30;1.00
30150;DHT22;16962;48.646;9.026;2022-07-23T00:08:25;21.40;1.00
30150;DHT22;16962;48.646;9.026;2022-07-23T00:11:14;21.40;1.00
30150;DHT22;16962;48.646;9.026;2022-07-23T00:14:03;21.50;1.00
30150;DHT22;16962;48.646;9.026;2022-07-23T00:16:51;21.50;1.00
30150;DHT22;16962;48.646;9.026;2022-07-23T00:19:38;21.50;1.00
30150;DHT22;16962;48.646;9.026;2022-07-23T00:22:27;21.40;1.00
30150;DHT22;16962;48.646;9.026;2022-07-23T00:25:16;21.20;1.00
30150;DHT22;16962;48.646;9.026;2022-07-23T00:28:21;21.00;1.00
30150;DHT22;16962;48.646;9.026;2022-07-23T00:31:08;20.90;1.00
30150;DHT22;16962;48.646;9.026;2022-07-23T00:33:56;20.90;1.00
30150;DHT22;16962;48.646;9.026;2022-07-23T00:36:43;20.90;1.00
30150;DHT22;16962;48.646;9.026;2022-07-23T00:39:30;20.90;1.00
30150;DHT22;16962;48.646;9.026;2022-07-23T00:42:18;21.00;1.00
30150;DHT22;16962;48.646;9.026;2022-07-23T00:45:08;21.10;1.00
30150;DHT22;16962;48.646;9.026;2022-07-23T00:47:57;21.10;1.00
30150;DHT22;16962;48.646;9.026;2022-07-23T00:50:45;21.10;1.00
30150;DHT22;16962;48.646;9.026;2022-07-23T00:53:32;21.10;1.00
30150;DHT22;16962;48.646;9.026;2022-07-23T00:56:19;21.00;1.00
30150;DHT22;16962;48.646;9.026;2022-07-23T00:59:07;21.10;1.00
30150;DHT22;16962;48.646;9.026;2022-07-23T01:01:54;21.00;1.00
30150;DHT22;16962;48.646;9.026;2022-07-23T01:04:41;21.10;1.00
30150;DHT22;16962;48.646;9.026;2022-07-23T01:07:29;21.10;1.00
30150;DHT22;16962;48.646;9.026;2022-07-23T01:10:16;21.00;1.00
30150;DHT22;16962;48.646;9.026;2022-07-23T01:13:19;20.70;1.00
30150;DHT22;16962;48.646;9.026;2022-07-23T01:16:06;20.40;1.00
30150;DHT22;16962;48.646;9.026;2022-07-23T01:18:57;20.30;1.00
30150;DHT22;16962;48.646;9.026;2022-07-23T01:21:50;20.30;1.00
30150;DHT22;16962;48.646;9.026;2022-07-23T01:24:37;20.30;1.00
30150;DHT22;16962;48.646;9.026;2022-07-23T01:27:25;20.20;1.00
30150;DHT22;16962;48.646;9.026;2022-07-23T01:30:12;20.20;1.00
30150;DHT22;16962;48.646;9.026;2022-07-23T01:33:00;20.20;1.00
30150;DHT22;16962;48.646;9.026;2022-07-23T01:35:47;20.10;1.00
30150;DHT22;16962;48.646;9.026;2022-07-23T01:38:34;19.90;1.00
30150;DHT22;16962;48.646;9.026;2022-07-23T01:41:21;19.70;1.00
30150;DHT22;16962;48.646;9.026;2022-07-23T01:44:10;19.70;1.00
30150;DHT22;16962;48.646;9.026;2022-07-23T01:47:01;19.70;1.00
30150;DHT22;16962;48.646;9.026;2022-07-23T01:49:49;19.70;1.00
30150;DHT22;16962;48.646;9.026;2022-07-23T01:52:36;19.60;1.00
30150;DHT22;16962;48.646;9.026;2022-07-23T01:55:24;19.50;1.00
30150;DHT22;16962;48.646;9.026;2022-07-23T01:58:11;19.40;1.70
30150;DHT22;16962;48.646;9.026;2022-07-23T02:00:58;19.40;15.40
30150;DHT22;16962;48.646;9.026;2022-07-23T02:03:46;19.30;19.90
30150;DHT22;16962;48.646;9.026;2022-07-23T02:06:33;19.40;13.40
30150;DHT22;16962;48.646;9.026;2022-07-23T02:09:21;19.50;1.00
30150;DHT22;16962;48.646;9.026;2022-07-23T02:12:08;19.70;1.00
30150;DHT22;16962;48.646;9.026;2022-07-23T02:14:55;19.80;1.00
30150;DHT22;16962;48.646;9.026;2022-07-23T02:17:42;19.80;1.00
30150;DHT22;16962;48.646;9.026;2022-07-23T02:20:30;19.70;1.00
30150;DHT22;16962;48.646;9.026;2022-07-23T02:23:17;19.80;1.00
30150;DHT22;16962;48.646;9.026;2022-07-23T02:26:04;19.90;1.00
30150;DHT22;16962;48.646;9.026;2022-07-23T02:28:51;19.90;1.00
30150;DHT22;16962;48.646;9.026;2022-07-23T02:31:40;19.90;1.00
30150;DHT22;16962;48.646;9.026;2022-07-23T02:34:27;19.80;1.00
30150;DHT22;16962;48.646;9.026;2022-07-23T02:37:14;19.80;1.00
30150;DHT22;16962;48.646;9.026;2022-07-23T02:40:02;19.70;1.00
30150;DHT22;16962;48.646;9.026;2022-07-23T02:42:49;19.70;1.00
30150;DHT22;16962;48.646;9.026;2022-07-23T02:45:38;19.70;1.00
30150;DHT22;16962;48.646;9.026;2022-07-23T02:48:25;19.70;1.00
30150;DHT22;16962;48.646;9.026;2022-07-23T02:51:13;19.70;1.00
30150;DHT22;16962;48.646;9.026;2022-07-23T02:54:05;19.70;1.00
30150;DHT22;16962;48.646;9.026;2022-07-23T02:56:53;19.70;1.00
30150;DHT22;16962;48.646;9.026;2022-07-23T02:59:40;19.80;1.00
30150;DHT22;16962;48.646;9.026;2022-07-23T03:02:27;20.00;1.00
30150;DHT22;16962;48.646;9.026;2022-07-23T03:05:14;20.00;1.00
30150;DHT22;16962;48.646;9.026;2022-07-23T03:08:05;19.90;1.00
30150;DHT22;16962;48.646;9.026;2022-07-23T03:10:52;19.80;1.00
30150;DHT22;16962;48.646;9.026;2022-07-23T03:13:41;19.70;1.00
30150;DHT22;16962;48.646;9.026;2022-07-23T03:16:31;19.70;1.00
30150;DHT22;16962;48.646;9.026;2022-07-23T03:19:18;19.70;1.00
30150;DHT22;16962;48.646;9.026;2022-07-23T03:22:07;19.60;1.00
30150;DHT22;16962;48.646;9.026;2022-07-23T03:24:54;19.60;1.00
30150;DHT22;16962;48.646;9.026;2022-07-23T03:28:15;19.50;1.00
30150;DHT22;16962;48.646;9.026;2022-07-23T03:31:02;19.30;1.00
30150;DHT22;16962;48.646;9.026;2022-07-23T03:33:50;19.20;1.00
30150;DHT22;16962;48.646;9.026;2022-07-23T03:36:37;19.10;1.00
30150;DHT22;16962;48.646;9.026;2022-07-23T03:39:24;19.10;1.00
30150;DHT22;16962;48.646;9.026;2022-07-23T03:42:14;19.20;1.00
30150;DHT22;16962;48.646;9.026;2022-07-23T03:45:04;19.20;1.00
30150;DHT22;16962;48.646;9.026;2022-07-23T03:47:51;19.20;1.00
30150;DHT22;16962;48.646;9.026;2022-07-23T03:50:41;19.20;1.00
30150;DHT22;16962;48.646;9.026;2022-07-23T03:53:28;19.20;1.00
30150;DHT22;16962;48.646;9.026;2022-07-23T03:56:16;19.20;1.00
30150;DHT22;16962;48.646;9.026;2022-07-23T03:59:04;19.20;1.00
30150;DHT22;16962;48.646;9.026;2022-07-23T04:01:52;19.10;1.00
30150;DHT22;16962;48.646;9.026;2022-07-23T04:04:46;19.20;1.00
30150;DHT22;16962;48.646;9.026;2022-07-23T04:07:33;19.20;1.00
30150;DHT22;16962;48.646;9.026;2022-07-23T04:10:23;19.30;1.00
30150;DHT22;16962;48.646;9.026;2022-07-23T04:13:12;19.30;1.00
30150;DHT22;16962;48.646;9.026;2022-07-23T04:16:02;19.30;1.00
30150;DHT22;16962;48.646;9.026;2022-07-23T04:18:50;19.30;1.00
30150;DHT22;16962;48.646;9.026;2022-07-23T04:21:38;19.40;1.00
30150;DHT22;16962;48.646;9.026;2022-07-23T04:24:27;19.40;1.00
30150;DHT22;16962;48.646;9.026;2022-07-23T04:27:15;19.40;1.00
30150;DHT22;16962;48.646;9.026;2022-07-23T04:30:02;19.40;1.00
30150;DHT22;16962;48.646;9.026;2022-07-23T04:32:52;19.40;1.00
30150;DHT22;16962;48.646;9.026;2022-07-23T04:35:42;19.50;1.00
30150;DHT22;16962;48.646;9.026;2022-07-23T04:38:29;19.60;1.00
30150;DHT22;16962;48.646;9.026;2022-07-23T04:41:16;19.60;1.00
30150;DHT22;16962;48.646;9.026;2022-07-23T04:44:04;19.60;1.00
30150;DHT22;16962;48.646;9.026;2022-07-23T04:46:54;19.60;1.00
30150;DHT22;16962;48.646;9.026;2022-07-23T04:49:41;19.70;1.00
30150;DHT22;16962;48.646;9.026;2022-07-23T04:52:29;19.70;1.00
30150;DHT22;16962;48.646;9.026;2022-07-23T04:55:16;19.80;1.00
30150;DHT22;16962;48.646;9.026;2022-07-23T04:58:03;20.00;1.00
30150;DHT22;16962;48.646;9.026;2022-07-23T05:00:51;20.00;1.00
30150;DHT22;16962;48.646;9.026;2022-07-23T05:03:39;20.20;1.00
30150;DHT22;16962;48.646;9.026;2022-07-23T05:06:29;20.20;1.00
30150;DHT22;16962;48.646;9.026;2022-07-23T05:09:16;20.30;1.00
30150;DHT22;16962;48.646;9.026;2022-07-23T05:12:03;20.30;1.00
30150;DHT22;16962;48.646;9.026;2022-07-23T05:14:56;20.20;1.00
30150;DHT22;16962;48.646;9.026;2022-07-23T05:17:43;20.10;1.00
30150;DHT22;16962;48.646;9.026;2022-07-23T05:20:33;20.20;1.00
30150;DHT22;16962;48.646;9.026;2022-07-23T05:23:20;20.30;1.00
30150;DHT22;16962;48.646;9.026;2022-07-23T05:26:08;20.40;1.00
30150;DHT22;16962;48.646;9.026;2022-07-23T05:28:55;20.50;1.00
30150;DHT22;16962;48.646;9.026;2022-07-23T05:31:42;20.60;1.00
30150;DHT22;16962;48.646;9.026;2022-07-23T05:34:29;20.70;1.00
30150;DHT22;16962;48.646;9.026;2022-07-23T05:37:19;20.70;1.00
30150;DHT22;16962;48.646;9.026;2022-07-23T05:40:08;20.80;1.00
30150;DHT22;16962;48.646;9.026;2022-07-23T05:42:58;20.70;1.00
30150;DHT22;16962;48.646;9.026;2022-07-23T05:45:46;20.70;1.00
30150;DHT22;16962;48.646;9.026;2022-07-23T05:48:35;20.70;1.00
30150;DHT22;16962;48.646;9.026;2022-07-23T05:51:24;20.60;1.00
30150;DHT22;16962;48.646;9.026;2022-07-23T05:54:11;20.70;1.00
30150;DHT22;16962;48.646;9.026;2022-07-23T05:56:58;20.70;1.00
30150;DHT22;16962;48.646;9.026;2022-07-23T05:59:45;20.70;1.00
30150;DHT22;16962;48.646;9.026;2022-07-23T06:02:32;20.60;1.00
30150;DHT22;16962;48.646;9.026;2022-07-23T06:05:23;20.70;1.00
30150;DHT22;16962;48.646;9.026;2022-07-23T06:08:10;20.80;1.00
30150;DHT22;16962;48.646;9.026;2022-07-23T06:10:57;20.90;1.00
30150;DHT22;16962;48.646;9.026;2022-07-23T06:13:44;21.00;1.00
30150;DHT22;16962;48.646;9.026;2022-07-23T06:16:32;21.10;1.00
30150;DHT22;16962;48.646;9.026;2022-07-23T06:19:19;21.30;1.00
30150;DHT22;16962;48.646;9.026;2022-07-23T06:22:06;21.50;1.00
30150;DHT22;16962;48.646;9.026;2022-07-23T06:24:53;21.60;1.00
30150;DHT22;16962;48.646;9.026;2022-07-23T06:27:40;21.90;1.00
30150;DHT22;16962;48.646;9.026;2022-07-23T06:30:27;22.10;1.00
30150;DHT22;16962;48.646;9.026;2022-07-23T06:33:15;22.30;1.00
30150;DHT22;16962;48.646;9.026;2022-07-23T06:36:02;22.40;1.00
30150;DHT22;16962;48.646;9.026;2022-07-23T06:38:54;22.80;1.00
30150;DHT22;16962;48.646;9.026;2022-07-23T06:41:42;23.30;1.00
30150;DHT22;16962;48.646;9.026;2022-07-23T06:44:36;23.60;1.00
30150;DHT22;16962;48.646;9.026;2022-07-23T06:47:23;23.50;1.00
30150;DHT22;16962;48.646;9.026;2022-07-23T06:50:10;23.30;1.00
30150;DHT22;16962;48.646;9.026;2022-07-23T06:52:57;23.30;1.00
30150;DHT22;16962;48.646;9.026;2022-07-23T06:55:44;23.30;1.00
30150;DHT22;16962;48.646;9.026;2022-07-23T06:58:32;23.60;1.00
30150;DHT22;16962;48.646;9.026;2022-07-23T07:01:21;23.80;1.00
30150;DHT22;16962;48.646;9.026;2022-07-23T07:04:08;23.80;1.00
30150;DHT22;16962;48.646;9.026;2022-07-23T07:06:55;23.60;1.00
30150;DHT22;16962;48.646;9.026;2022-07-23T07:09:47;23.40;1.00
30150;DHT22;16962;48.646;9.026;2022-07-23T07:12:34;23.20;1.00
30150;DHT22;16962;48.646;9.026;2022-07-23T07:15:21;23.10;1.00
30150;DHT22;16962;48.646;9.026;2022-07-23T07:18:09;22.90;1.00
30150;DHT22;16962;48.646;9.026;2022-07-23T07:20:57;22.80;1.00
30150;DHT22;16962;48.646;9.026;2022-07-23T07:23:44;23.10;1.00
30150;DHT22;16962;48.646;9.026;2022-07-23T07:26:32;23.70;1.00
30150;DHT22;16962;48.646;9.026;2022-07-23T07:29:21;24.30;1.00
30150;DHT22;16962;48.646;9.026;2022-07-23T07:32:08;24.60;1.00
30150;DHT22;16962;48.646;9.026;2022-07-23T07:34:55;24.90;1.00
30150;DHT22;16962;48.646;9.026;2022-07-23T07:37:42;25.50;1.00
30150;DHT22;16962;48.646;9.026;2022-07-23T07:40:30;26.10;1.00
30150;DHT22;16962;48.646;9.026;2022-07-23T07:43:20;26.60;1.00
30150;DHT22;16962;48.646;9.026;2022-07-23T07:46:08;27.20;1.00
30150;DHT22;16962;48.646;9.026;2022-07-23T07:48:58;27.40;1.00
30150;DHT22;16962;48.646;9.026;2022-07-23T07:51:45;27.60;1.00
30150;DHT22;16962;48.646;9.026;2022-07-23T07:54:33;27.70;1.00
30150;DHT22;16962;48.646;9.026;2022-07-23T07:57:23;27.20;1.00
30150;DHT22;16962;48.646;9.026;2022-07-23T08:00:12;27.60;1.00
30150;DHT22;16962;48.646;9.026;2022-07-23T08:03:00;27.80;1.00
30150;DHT22;16962;48.646;9.026;2022-07-23T08:05:49;28.20;1.00
30150;DHT22;16962;48.646;9.026;2022-07-23T08:08:36;28.80;1.00
30150;DHT22;16962;48.646;9.026;2022-07-23T08:11:23;28.70;1.00
30150;DHT22;16962;48.646;9.026;2022-07-23T08:14:10;27.80;1.00
30150;DHT22;16962;48.646;9.026;2022-07-23T08:16:58;27.60;1.00
30150;DHT22;16962;48.646;9.026;2022-07-23T08:20:01;27.30;1.00
30150;DHT22;16962;48.646;9.026;2022-07-23T08:22:56;27.40;1.00
30150;DHT22;16962;48.646;9.026;2022-07-23T08:25:43;28.20;1.00
30150;DHT22;16962;48.646;9.026;2022-07-23T08:28:31;28.00;1.00
30150;DHT22;16962;48.646;9.026;2022-07-23T08:31:20;27.70;1.00
30150;DHT22;16962;48.646;9.026;2022-07-23T08:34:08;27.90;1.00
30150;DHT22;16962;48.646;9.026;2022-07-23T08:36:56;28.60;1.00
30150;DHT22;16962;48.646;9.026;2022-07-23T08:39:43;29.00;1.00
30150;DHT22;16962;48.646;9.026;2022-07-23T08:42:33;29.20;1.00
30150;DHT22;16962;48.646;9.026;2022-07-23T08:45:24;28.90;1.00
30150;DHT22;16962;48.646;9.026;2022-07-23T08:51:04;30.10;1.00
30150;DHT22;16962;48.646;9.026;2022-07-23T08:53:56;30.20;1.00
30150;DHT22;16962;48.646;9.026;2022-07-23T08:56:49;29.70;1.00
30150;DHT22;16962;48.646;9.026;2022-07-23T08:59:36;29.50;1.00
30150;DHT22;16962;48.646;9.026;2022-07-23T09:02:23;29.40;99.90
30150;DHT22;16962;48.646;9.026;2022-07-23T09:05:12;29.20;1.00
30150;DHT22;16962;48.646;9.026;2022-07-23T09:08:21;28.30;1.00
30150;DHT22;16962;48.646;9.026;2022-07-23T09:11:13;27.90;1.00
30150;DHT22;16962;48.646;9.026;2022-07-23T09:14:05;28.10;1.00
30150;DHT22;16962;48.646;9.026;2022-07-23T09:16:53;28.20;1.00
30150;DHT22;16962;48.646;9.026;2022-07-23T09:19:44;28.80;1.00
30150;DHT22;16962;48.646;9.026;2022-07-23T09:22:32;29.20;1.00
30150;DHT22;16962;48.646;9.026;2022-07-23T09:25:19;29.50;99.90
30150;DHT22;16962;48.646;9.026;2022-07-23T09:28:06;29.10;1.00
30150;DHT22;16962;48.646;9.026;2022-07-23T09:30:54;29.40;1.00
30150;DHT22;16962;48.646;9.026;2022-07-23T09:33:41;30.20;99.90
30150;DHT22;16962;48.646;9.026;2022-07-23T09:36:31;30.60;99.90
30150;DHT22;16962;48.646;9.026;2022-07-23T09:39:31;31.40;99.90
30150;DHT22;16962;48.646;9.026;2022-07-23T09:45:10;33.10;99.90
30150;DHT22;16962;48.646;9.026;2022-07-23T09:48:15;33.60;99.90
30150;DHT22;16962;48.646;9.026;2022-07-23T09:51:08;33.70;99.90
30150;DHT22;16962;48.646;9.026;2022-07-23T09:53:55;33.60;99.90
30150;DHT22;16962;48.646;9.026;2022-07-23T09:56:43;32.40;99.90
30150;DHT22;16962;48.646;9.026;2022-07-23T09:59:34;32.10;99.90
30150;DHT22;16962;48.646;9.026;2022-07-23T10:02:22;32.60;99.90
30150;DHT22;16962;48.646;9.026;2022-07-23T10:05:14;32.60;99.90
30150;DHT22;16962;48.646;9.026;2022-07-23T10:08:03;31.10;99.90
30150;DHT22;16962;48.646;9.026;2022-07-23T10:10:50;29.70;99.90
30150;DHT22;16962;48.646;9.026;2022-07-23T10:13:40;28.70;99.90
30150;DHT22;16962;48.646;9.026;2022-07-23T10:16:48;28.60;99.90
30150;DHT22;16962;48.646;9.026;2022-07-23T10:19:36;29.10;99.90
30150;DHT22;16962;48.646;9.026;2022-07-23T10:22:26;29.30;99.90
30150;DHT22;16962;48.646;9.026;2022-07-23T10:37:54;31.60;99.90
30150;DHT22;16962;48.646;9.026;2022-07-23T10:40:56;31.60;99.90
30150;DHT22;16962;48.646;9.026;2022-07-23T10:43:43;31.90;99.90
30150;DHT22;16962;48.646;9.026;2022-07-23T10:46:33;32.70;99.90
30150;DHT22;16962;48.646;9.026;2022-07-23T10:49:33;33.30;99.90
30150;DHT22;16962;48.646;9.026;2022-07-23T10:52:25;33.30;99.90
30150;DHT22;16962;48.646;9.026;2022-07-23T10:58:08;33.90;99.90
30150;DHT22;16962;48.646;9.026;2022-07-23T11:00:56;34.00;99.90
30150;DHT22;16962;48.646;9.026;2022-07-23T11:03:56;34.30;99.90
30150;DHT22;16962;48.646;9.026;2022-07-23T11:09:42;34.00;99.90
30150;DHT22;16962;48.646;9.026;2022-07-23T11:15:16;33.60;99.90
30150;DHT22;16962;48.646;9.026;2022-07-23T11:18:04;32.90;99.90
30150;DHT22;16962;48.646;9.026;2022-07-23T11:20:54;33.80;99.90
30150;DHT22;16962;48.646;9.026;2022-07-23T11:26:59;35.60;99.90
30150;DHT22;16962;48.646;9.026;2022-07-23T11:29:48;36.10;99.90
30150;DHT22;16962;48.646;9.026;2022-07-23T11:32:40;36.30;99.90
30150;DHT22;16962;48.646;9.026;2022-07-23T11:35:29;36.50;99.90
30150;DHT22;16962;48.646;9.026;2022-07-23T11:38:20;35.80;99.90
30150;DHT22;16962;48.646;9.026;2022-07-23T11:41:08;36.00;99.90
30150;DHT22;16962;48.646;9.026;2022-07-23T11:43:57;36.60;99.90
30150;DHT22;16962;48.646;9.026;2022-07-23T11:46:58;36.10;99.90
30150;DHT22;16962;48.646;9.026;2022-07-23T11:49:59;36.20;99.90
30150;DHT22;16962;48.646;9.026;2022-07-23T11:52:52;36.80;99.90
30150;DHT22;16962;48.646;9.026;2022-07-23T11:55:40;34.80;99.90
30150;DHT22;16962;48.646;9.026;2022-07-23T11:58:27;34.00;99.90
30150;DHT22;16962;48.646;9.026;2022-07-23T12:01:15;33.60;99.90
30150;DHT22;16962;48.646;9.026;2022-07-23T12:04:06;33.90;99.90
30150;DHT22;16962;48.646;9.026;2022-07-23T12:06:56;34.10;99.90
30150;DHT22;16962;48.646;9.026;2022-07-23T12:09:45;34.20;99.90
30150;DHT22;16962;48.646;9.026;2022-07-23T12:12:41;34.50;99.90
30150;DHT22;16962;48.646;9.026;2022-07-23T12:18:23;35.40;99.90
30150;DHT22;16962;48.646;9.026;2022-07-23T12:21:10;32.90;99.90
30150;DHT22;16962;48.646;9.026;2022-07-23T12:24:06;32.40;99.90
30150;DHT22;16962;48.646;9.026;2022-07-23T12:27:10;33.60;99.90
30150;DHT22;16962;48.646;9.026;2022-07-23T12:30:14;34.20;99.90
30150;DHT22;16962;48.646;9.026;2022-07-23T12:33:01;34.30;99.90
30150;DHT22;16962;48.646;9.026;2022-07-23T12:35:49;33.50;99.90
30150;DHT22;16962;48.646;9.026;2022-07-23T12:41:25;33.80;99.90
30150;DHT22;16962;48.646;9.026;2022-07-23T12:44:16;34.00;99.90
30150;DHT22;16962;48.646;9.026;2022-07-23T12:47:04;34.90;99.90
30150;DHT22;16962;48.646;9.026;2022-07-23T12:49:51;35.30;99.90
30150;DHT22;16962;48.646;9.026;2022-07-23T12:52:39;35.30;99.90
30150;DHT22;16962;48.646;9.026;2022-07-23T12:55:38;36.20;99.90
30150;DHT22;16962;48.646;9.026;2022-07-23T12:58:49;36.80;99.90
30150;DHT22;16962;48.646;9.026;2022-07-23T13:01:57;36.40;99.90
30150;DHT22;16962;48.646;9.026;2022-07-23T13:04:48;36.50;99.90
30150;DHT22;16962;48.646;9.026;2022-07-23T13:07:38;36.50;99.90
30150;DHT22;16962;48.646;9.026;2022-07-23T13:10:29;36.20;99.90
30150;DHT22;16962;48.646;9.026;2022-07-23T13:13:25;36.60;99.90
30150;DHT22;16962;48.646;9.026;2022-07-23T13:16:16;36.70;99.90
30150;DHT22;16962;48.646;9.026;2022-07-23T13:19:04;37.20;99.90
30150;DHT22;16962;48.646;9.026;2022-07-23T13:21:57;37.00;99.90
30150;DHT22;16962;48.646;9.026;2022-07-23T13:24:44;35.60;99.90
30150;DHT22;16962;48.646;9.026;2022-07-23T13:27:33;36.50;99.90
30150;DHT22;16962;48.646;9.026;2022-07-23T13:30:26;37.60;99.90
30150;DHT22;16962;48.646;9.026;2022-07-23T13:33:19;38.60;99.90
30150;DHT22;16962;48.646;9.026;2022-07-23T13:36:07;38.30;99.90
30150;DHT22;16962;48.646;9.026;2022-07-23T13:38:54;37.20;99.90
30150;DHT22;16962;48.646;9.026;2022-07-23T13:41:44;36.20;99.90
30150;DHT22;16962;48.646;9.026;2022-07-23T13:44:36;34.70;99.90
30150;DHT22;16962;48.646;9.026;2022-07-23T13:47:28;33.30;99.90
30150;DHT22;16962;48.646;9.026;2022-07-23T13:50:15;32.60;99.90
30150;DHT22;16962;48.646;9.026;2022-07-23T13:53:09;31.90;99.90
30150;DHT22;16962;48.646;9.026;2022-07-23T13:55:56;30.50;99.90
30150;DHT22;16962;48.646;9.026;2022-07-23T13:58:44;30.00;99.90
30150;DHT22;16962;48.646;9.026;2022-07-23T14:01:31;30.00;99.90
30150;DHT22;16962;48.646;9.026;2022-07-23T14:04:32;30.80;99.90
30150;DHT22;16962;48.646;9.026;2022-07-23T14:07:20;31.40;99.90
30150;DHT22;16962;48.646;9.026;2022-07-23T14:10:08;31.10;99.90
30150;DHT22;16962;48.646;9.026;2022-07-23T14:13:00;30.50;99.90
30150;DHT22;16962;48.646;9.026;2022-07-23T14:15:50;30.00;99.90
30150;DHT22;16962;48.646;9.026;2022-07-23T14:18:39;29.80;99.90
30150;DHT22;16962;48.646;9.026;2022-07-23T14:21:26;29.60;99.90
30150;DHT22;16962;48.646;9.026;2022-07-23T14:24:16;30.60;99.90
30150;DHT22;16962;48.646;9.026;2022-07-23T14:27:08;31.90;99.90
30150;DHT22;16962;48.646;9.026;2022-07-23T14:29:55;33.30;99.90
30150;DHT22;16962;48.646;9.026;2022-07-23T14:32:43;34.80;99.90
30150;DHT22;16962;48.646;9.026;2022-07-23T14:35:32;36.10;99.90
30150;DHT22;16962;48.646;9.026;2022-07-23T14:39:52;36.80;99.90
30150;DHT22;16962;48.646;9.026;2022-07-23T14:42:39;35.20;99.90
30150;DHT22;16962;48.646;9.026;2022-07-23T14:45:35;33.70;99.90
30150;DHT22;16962;48.646;9.026;2022-07-23T14:48:22;32.60;99.90
30150;DHT22;16962;48.646;9.026;2022-07-23T14:51:10;33.10;99.90
30150;DHT22;16962;48.646;9.026;2022-07-23T14:53:58;32.90;99.90
30150;DHT22;16962;48.646;9.026;2022-07-23T14:56:45;32.10;99.90
30150;DHT22;16962;48.646;9.026;2022-07-23T14:59:34;31.80;99.90
30150;DHT22;16962;48.646;9.026;2022-07-23T15:02:23;31.60;99.90
30150;DHT22;16962;48.646;9.026;2022-07-23T15:05:13;30.90;99.90
30150;DHT22;16962;48.646;9.026;2022-07-23T15:08:04;30.30;99.90
30150;DHT22;16962;48.646;9.026;2022-07-23T15:10:55;29.70;99.90
30150;DHT22;16962;48.646;9.026;2022-07-23T15:13:42;29.20;99.90
30150;DHT22;16962;48.646;9.026;2022-07-23T15:16:31;29.20;99.90
30150;DHT22;16962;48.646;9.026;2022-07-23T15:19:25;29.10;99.90
30150;DHT22;16962;48.646;9.026;2022-07-23T15:22:14;28.90;99.90
30150;DHT22;16962;48.646;9.026;2022-07-23T15:25:02;28.80;99.90
30150;DHT22;16962;48.646;9.026;2022-07-23T15:27:50;28.80;99.90
30150;DHT22;16962;48.646;9.026;2022-07-23T15:30:38;29.60;99.90
30150;DHT22;16962;48.646;9.026;2022-07-23T15:33:25;29.50;99.90
30150;DHT22;16962;48.646;9.026;2022-07-23T15:36:16;28.90;99.90
30150;DHT22;16962;48.646;9.026;2022-07-23T15:39:06;28.50;99.90
30150;DHT22;16962;48.646;9.026;2022-07-23T15:41:58;28.30;99.90
30150;DHT22;16962;48.646;9.026;2022-07-23T15:44:46;28.00;99.90
30150;DHT22;16962;48.646;9.026;2022-07-23T15:47:34;27.90;99.90
30150;DHT22;16962;48.646;9.026;2022-07-23T15:50:21;27.80;99.90
30150;DHT22;16962;48.646;9.026;2022-07-23T15:53:11;27.90;99.90
30150;DHT22;16962;48.646;9.026;2022-07-23T15:56:05;28.00;99.90
30150;DHT22;16962;48.646;9.026;2022-07-23T15:59:02;28.20;99.90
30150;DHT22;16962;48.646;9.026;2022-07-23T16:01:52;28.30;99.90
30150;DHT22;16962;48.646;9.026;2022-07-23T16:04:39;28.20;99.90
30150;DHT22;16962;48.646;9.026;2022-07-23T16:07:29;28.10;99.90
30150;DHT22;16962;48.646;9.026;2022-07-23T16:10:20;28.20;99.90
30150;DHT22;16962;48.646;9.026;2022-07-23T16:13:08;28.30;99.90
30150;DHT22;16962;48.646;9.026;2022-07-23T16:15:55;28.20;99.90
30150;DHT22;16962;48.646;9.026;2022-07-23T16:18:42;28.00;99.90
30150;DHT22;16962;48.646;9.026;2022-07-23T16:21:30;27.90;99.90
30150;DHT22;16962;48.646;9.026;2022-07-23T16:24:19;27.80;99.90
30150;DHT22;16962;48.646;9.026;2022-07-23T16:27:07;27.70;99.90
30150;DHT22;16962;48.646;9.026;2022-07-23T16:29:54;27.60;99.90
30150;DHT22;16962;48.646;9.026;2022-07-23T16:32:41;27.60;99.90
30150;DHT22;16962;48.646;9.026;2022-07-23T16:35:29;27.50;99.90
30150;DHT22;16962;48.646;9.026;2022-07-23T16:38:19;27.40;99.90
30150;DHT22;16962;48.646;9.026;2022-07-23T16:41:08;27.20;99.90
30150;DHT22;16962;48.646;9.026;2022-07-23T16:43:55;27.30;99.90
30150;DHT22;16962;48.646;9.026;2022-07-23T16:46:43;27.20;99.90
30150;DHT22;16962;48.646;9.026;2022-07-23T16:49:31;27.20;99.90
30150;DHT22;16962;48.646;9.026;2022-07-23T16:52:21;27.40;99.90
30150;DHT22;16962;48.646;9.026;2022-07-23T16:55:10;27.60;99.90
30150;DHT22;16962;48.646;9.026;2022-07-23T16:57:59;27.70;99.90
30150;DHT22;16962;48.646;9.026;2022-07-23T17:00:46;27.70;99.90
30150;DHT22;16962;48.646;9.026;2022-07-23T17:03:34;27.60;99.90
30150;DHT22;16962;48.646;9.026;2022-07-23T17:06:21;27.50;99.90
30150;DHT22;16962;48.646;9.026;2022-07-23T17:09:11;27.40;99.90
30150;DHT22;16962;48.646;9.026;2022-07-23T17:11:58;27.30;99.90
30150;DHT22;16962;48.646;9.026;2022-07-23T17:14:51;27.30;99.90
30150;DHT22;16962;48.646;9.026;2022-07-23T17:17:39;27.10;99.90
30150;DHT22;16962;48.646;9.026;2022-07-23T17:20:27;26.80;99.90
30150;DHT22;16962;48.646;9.026;2022-07-23T17:23:14;26.50;99.90
30150;DHT22;16962;48.646;9.026;2022-07-23T17:26:01;26.30;99.90
30150;DHT22;16962;48.646;9.026;2022-07-23T17:28:49;26.10;99.90
30150;DHT22;16962;48.646;9.026;2022-07-23T17:31:39;26.10;99.90
30150;DHT22;16962;48.646;9.026;2022-07-23T17:34:26;26.10;99.90
30150;DHT22;16962;48.646;9.026;2022-07-23T17:37:16;26.10;99.90
30150;DHT22;16962;48.646;9.026;2022-07-23T17:40:04;26.00;99.90
30150;DHT22;16962;48.646;9.026;2022-07-23T17:42:52;25.90;99.90
30150;DHT22;16962;48.646;9.026;2022-07-23T17:45:39;25.70;99.90
30150;DHT22;16962;48.646;9.026;2022-07-23T17:48:29;25.60;99.90
30150;DHT22;16962;48.646;9.026;2022-07-23T17:51:16;25.50;99.90
30150;DHT22;16962;48.646;9.026;2022-07-23T17:54:06;25.40;99.90
30150;DHT22;16962;48.646;9.026;2022-07-23T17:56:53;25.40;99.90
30150;DHT22;16962;48.646;9.026;2022-07-23T17:59:41;25.20;99.90
30150;DHT22;16962;48.646;9.026;2022-07-23T18:02:30;25.10;99.90
30150;DHT22;16962;48.646;9.026;2022-07-23T18:05:18;25.00;99.90
30150;DHT22;16962;48.646;9.026;2022-07-23T18:08:06;24.90;99.90
30150;DHT22;16962;48.646;9.026;2022-07-23T18:10:53;24.80;99.90
30150;DHT22;16962;48.646;9.026;2022-07-23T18:13:41;24.70;99.90
30150;DHT22;16962;48.646;9.026;2022-07-23T18:16:28;24.70;99.90
30150;DHT22;16962;48.646;9.026;2022-07-23T18:19:15;24.70;99.90
30150;DHT22;16962;48.646;9.026;2022-07-23T18:22:02;24.60;99.90
30150;DHT22;16962;48.646;9.026;2022-07-23T18:24:52;24.50;99.90
30150;DHT22;16962;48.646;9.026;2022-07-23T18:27:39;24.50;99.90
30150;DHT22;16962;48.646;9.026;2022-07-23T18:30:27;24.50;99.90
30150;DHT22;16962;48.646;9.026;2022-07-23T18:33:16;24.40;99.90